createdAt,value
2019-06-07T00:02:25.720Z,85.90
2019-06-07T00:07:30.580Z,86.00
2019-06-07T00:12:35.365Z,86.50
2019-06-07T00:17:40.210Z,87.80
2019-06-07T00:22:45.040Z,88.60
2019-06-07T00:27:49.978Z,89.20
2019-06-07T00:32:54.818Z,89.80
2019-06-07T00:37:59.598Z,90.20
2019-06-07T00:43:04.443Z,90.20
2019-06-07T00:48:15.990Z,90.30
2019-06-07T00:53:23.353Z,90.80
2019-06-07T00:58:27.482Z,91.40
2019-06-07T01:03:28.777Z,91.30
2019-06-07T01:08:34.319Z,91.30
2019-06-07T01:13:39.155Z,91.50
2019-06-07T01:18:46.854Z,91.90
2019-06-07T01:24:11.812Z,91.90
2019-06-07T01:28:56.855Z,92.70
2019-06-07T01:34:01.699Z,92.70
2019-06-07T01:39:07.739Z,93.00
2019-06-07T01:44:13.117Z,92.90
2019-06-07T01:49:19.681Z,92.90
2019-06-07T01:54:53.347Z,92.90
2019-06-07T01:59:32.294Z,93.10
2019-06-07T02:04:37.251Z,93.20
2019-06-07T02:09:42.200Z,93.30
2019-06-07T02:14:47.033Z,93.60
2019-06-07T02:19:51.875Z,94.00
2019-06-07T02:25:34.603Z,94.10
2019-06-07T02:30:35.210Z,94.20
2019-06-07T02:35:11.422Z,94.40
2019-06-07T02:40:16.749Z,94.80
2019-06-07T02:45:24.179Z,95.20
2019-06-07T02:50:29.146Z,95.10
2019-06-07T02:55:57.329Z,95.00
2019-06-07T03:01:05.585Z,94.80
2019-06-07T03:05:52.931Z,95.20
2019-06-07T03:10:58.470Z,95.90
2019-06-07T03:16:05.218Z,95.60
2019-06-07T03:21:17.416Z,95.50
2019-06-07T03:26:23.648Z,95.30
2019-06-07T03:31:35.298Z,95.70
2019-06-07T03:36:38.809Z,95.50
2019-06-07T03:42:02.537Z,95.70
2019-06-07T03:46:47.855Z,95.50
2019-06-07T03:51:52.702Z,96.10
2019-06-07T03:56:57.478Z,95.80
2019-06-07T04:02:02.308Z,96.10
2019-06-07T04:07:07.148Z,95.80
2019-06-07T04:12:11.848Z,95.90
2019-06-07T04:17:16.637Z,96.00
2019-06-07T04:22:21.393Z,95.90
2019-06-07T04:27:26.181Z,96.30
2019-06-07T04:32:32.095Z,95.90
2019-06-07T04:37:41.168Z,96.30
2019-06-07T04:42:45.891Z,96.40
2019-06-07T04:47:52.519Z,96.60
2019-06-07T04:52:57.346Z,96.30
2019-06-07T04:58:02.180Z,96.50
2019-06-07T05:03:07.308Z,96.00
2019-06-07T05:08:27.462Z,96.40
2019-06-07T05:13:18.598Z,96.20
2019-06-07T05:18:23.368Z,96.30
2019-06-07T05:24:02.502Z,95.70
2019-06-07T05:28:35.126Z,95.50
2019-06-07T05:33:43.269Z,94.90
2019-06-07T05:38:47.618Z,94.00
2019-06-07T05:44:11.576Z,94.00
2019-06-07T05:48:58.981Z,93.80
2019-06-07T05:54:03.739Z,93.20
2019-06-07T05:59:08.568Z,92.20
2019-06-07T06:04:13.414Z,91.40
2019-06-07T06:09:18.254Z,91.00
2019-06-07T06:14:23.088Z,90.00
2019-06-07T06:19:27.943Z,88.90
2019-06-07T06:24:32.791Z,86.00
2019-06-07T06:29:38.733Z,86.00
2019-06-07T06:34:47.099Z,85.80
2019-06-07T06:39:50.639Z,83.70
2019-06-07T06:44:55.408Z,83.30
2019-06-07T06:50:01.923Z,83.30
2019-06-07T06:55:11.270Z,82.50
2019-06-07T07:00:16.506Z,80.50
2019-06-07T07:05:21.351Z,80.60
2019-06-07T07:10:41.272Z,80.70
2019-06-07T07:15:48.146Z,79.10
2019-06-07T07:20:56.860Z,77.60
2019-06-07T07:26:00.118Z,77.80
2019-06-07T07:31:05.127Z,75.70
2019-06-07T07:36:35.193Z,75.00
2019-06-07T07:41:16.543Z,73.80
2019-06-07T07:46:29.177Z,70.10
2019-06-07T07:51:27.715Z,74.00
2019-06-07T07:56:32.545Z,71.50
2019-06-07T08:01:37.395Z,72.20
2019-06-07T08:06:42.263Z,68.30
2019-06-07T08:11:47.806Z,71.80
2019-06-07T08:16:54.495Z,70.50
2019-06-07T08:22:01.774Z,68.70
2019-06-07T08:27:25.267Z,72.80
2019-06-07T08:32:12.907Z,69.60
2019-06-07T08:37:17.740Z,68.10
2019-06-07T08:42:36.450Z,65.90
2019-06-07T08:47:29.208Z,66.50
2019-06-07T08:52:34.044Z,59.90
2019-06-07T08:57:38.897Z,65.00
2019-06-07T09:02:43.736Z,62.40
2019-06-07T09:08:07.096Z,61.70
2019-06-07T09:13:03.006Z,57.60
2019-06-07T09:23:16.319Z,56.10
2019-06-07T09:28:19.746Z,54.10
2019-06-07T09:33:20.929Z,53.40
2019-06-07T09:38:26.903Z,56.80
2019-06-07T09:44:00.745Z,60.10
2019-06-07T09:53:44.931Z,58.90
2019-06-07T09:58:52.716Z,54.70
2019-06-07T10:04:02.369Z,58.80
2019-06-07T10:14:09.181Z,51.20
2019-06-07T10:19:13.967Z,54.10
2019-06-07T10:24:18.799Z,54.70
2019-06-07T10:29:23.684Z,52.00
2019-06-07T10:34:28.494Z,54.00
2019-06-07T10:39:47.570Z,51.40
2019-06-07T10:44:39.874Z,49.00
2019-06-07T10:49:44.705Z,50.00
2019-06-07T10:54:49.969Z,50.40
2019-06-07T10:59:54.812Z,53.80
2019-06-07T11:04:59.678Z,53.90
2019-06-07T11:10:15.572Z,66.90
2019-06-07T11:15:16.530Z,72.20
2019-06-07T11:20:21.481Z,81.50
2019-06-07T11:25:26.335Z,84.60
2019-06-07T11:30:31.427Z,90.30
2019-06-07T11:35:36.259Z,91.70
2019-06-07T11:40:41.106Z,90.10
2019-06-07T11:45:45.977Z,93.40
2019-06-07T11:50:50.805Z,94.90
2019-06-07T11:55:55.752Z,94.80
2019-06-07T12:01:00.585Z,93.20
2019-06-07T12:06:05.434Z,95.40
2019-06-07T12:11:10.274Z,93.70
2019-06-07T12:16:15.445Z,95.20
2019-06-07T12:21:20.371Z,94.90
2019-06-07T12:26:25.237Z,92.70
2019-06-07T12:31:30.011Z,91.80
2019-06-07T12:36:34.895Z,92.30
2019-06-07T12:41:41.238Z,94.20
2019-06-07T12:46:46.093Z,95.20
2019-06-07T12:51:50.937Z,93.80
2019-06-07T12:56:55.869Z,92.00
2019-06-07T13:02:02.507Z,91.20
2019-06-07T13:07:07.195Z,86.90
2019-06-07T13:12:11.968Z,86.90
2019-06-07T13:17:17.910Z,85.20
2019-06-07T13:22:24.400Z,82.70
2019-06-07T13:27:33.359Z,84.80
2019-06-07T13:32:35.778Z,84.10
2019-06-07T13:37:40.627Z,79.30
2019-06-07T13:42:45.389Z,70.90
2019-06-07T13:47:50.230Z,71.00
2019-06-07T13:52:54.983Z,68.40
2019-06-07T13:58:00.004Z,67.10
2019-06-07T14:03:05.678Z,64.60
2019-06-07T14:08:10.527Z,63.90
2019-06-07T14:13:15.331Z,63.30
2019-06-07T14:18:20.483Z,61.50
2019-06-07T14:23:43.736Z,60.20
2019-06-07T14:28:34.166Z,60.10
2019-06-07T14:33:39.632Z,70.40
2019-06-07T14:38:44.484Z,63.80
2019-06-07T14:43:49.672Z,67.80
2019-06-07T14:48:59.793Z,68.90
2019-06-07T14:54:07.734Z,61.00
2019-06-07T14:59:14.045Z,62.10
2019-06-07T15:04:20.363Z,67.70
2019-06-07T15:09:25.133Z,70.30
2019-06-07T15:14:31.365Z,74.70
2019-06-07T15:19:36.483Z,77.80
2019-06-07T15:24:41.503Z,75.90
2019-06-07T15:29:47.728Z,78.50
2019-06-07T15:34:52.574Z,81.40
2019-06-07T15:39:57.415Z,82.20
2019-06-07T15:45:05.195Z,80.00
2019-06-07T15:50:10.438Z,79.00
2019-06-07T15:55:16.761Z,77.10
2019-06-07T16:00:24.695Z,78.50
2019-06-07T16:05:29.556Z,76.40
2019-06-07T16:10:34.741Z,78.60
2019-06-07T16:15:41.219Z,79.70
2019-06-07T16:20:46.226Z,79.80
2019-06-07T16:25:51.209Z,78.30
2019-06-07T16:30:56.028Z,78.20
2019-06-07T16:36:00.852Z,74.30
2019-06-07T16:41:05.884Z,74.10
2019-06-07T16:46:10.727Z,75.90
2019-06-07T16:51:15.481Z,80.70
2019-06-07T16:56:20.323Z,78.40
2019-06-07T17:01:25.150Z,77.60
2019-06-07T17:06:29.999Z,77.20
2019-06-07T17:11:34.849Z,78.10
2019-06-07T17:16:40.881Z,79.00
2019-06-07T17:21:47.513Z,79.30
2019-06-07T17:26:52.584Z,79.40
2019-06-07T17:31:57.417Z,79.40
2019-06-07T17:37:02.173Z,77.90
2019-06-07T17:42:07.009Z,80.00
2019-06-07T17:47:11.849Z,81.40
2019-06-07T17:52:16.686Z,81.30
2019-06-07T17:57:21.456Z,79.70
2019-06-07T18:02:26.306Z,79.30
2019-06-07T18:07:32.136Z,80.60
2019-06-07T18:12:37.182Z,82.50
2019-06-07T18:17:41.886Z,84.20
2019-06-07T18:22:47.020Z,87.30
2019-06-07T18:27:52.745Z,89.40
2019-06-07T18:32:59.198Z,90.90
2019-06-07T18:38:04.364Z,91.50
2019-06-07T18:43:09.205Z,92.00
2019-06-07T18:48:14.041Z,92.60
2019-06-07T18:53:18.921Z,93.20
2019-06-07T18:58:23.766Z,93.40
2019-06-07T19:03:28.720Z,94.00
2019-06-07T19:08:33.559Z,94.00
2019-06-07T19:13:38.391Z,94.90
2019-06-07T19:18:43.165Z,95.00
2019-06-07T19:23:48.085Z,95.60
2019-06-07T19:28:53.053Z,96.50
2019-06-07T19:33:59.271Z,96.80
2019-06-07T19:39:05.434Z,96.90
2019-06-07T19:44:13.011Z,97.10
2019-06-07T19:49:17.876Z,97.20
2019-06-07T19:54:22.729Z,97.40
2019-06-07T19:59:27.572Z,97.50
2019-06-07T20:04:32.466Z,97.60
2019-06-07T20:09:37.237Z,97.90
2019-06-07T20:14:42.090Z,98.00
2019-06-07T20:19:46.955Z,98.30
2019-06-07T20:24:51.809Z,98.40
2019-06-07T20:29:56.629Z,98.80
2019-06-07T20:35:01.740Z,99.20
2019-06-07T20:40:22.770Z,98.90
2019-06-07T20:45:14.364Z,98.90
2019-06-07T20:50:19.319Z,99.00
2019-06-07T20:55:24.156Z,98.80
2019-06-07T21:00:29.083Z,98.90
2019-06-07T21:05:33.764Z,99.30
2019-06-07T21:10:38.620Z,99.60
2019-06-07T21:15:48.778Z,99.90
2019-06-07T21:20:49.919Z,99.80
2019-06-07T21:25:54.869Z,99.90
2019-06-07T21:30:59.638Z,99.80
2019-06-07T21:36:05.982Z,99.90
2019-06-07T21:41:10.909Z,99.90
2019-06-07T21:46:20.547Z,99.90
2019-06-07T21:51:22.226Z,99.90
2019-06-07T21:56:27.095Z,99.90
2019-06-07T22:01:32.611Z,99.90
2019-06-07T22:06:37.444Z,99.90
2019-06-07T22:11:42.219Z,99.90
2019-06-07T22:16:46.991Z,99.90
2019-06-07T22:22:02.164Z,99.90
2019-06-07T22:26:58.224Z,99.90
2019-06-07T22:32:02.988Z,99.90
2019-06-07T22:37:09.177Z,99.90
2019-06-07T22:42:15.234Z,99.90
2019-06-07T22:47:20.109Z,99.90
2019-06-07T22:52:24.891Z,99.90
2019-06-07T22:57:47.341Z,99.90
2019-06-07T23:02:52.185Z,99.90
2019-06-07T23:07:57.036Z,99.90
2019-06-07T23:13:02.107Z,99.90
2019-06-07T23:18:07.237Z,99.90
2019-06-07T23:23:12.275Z,99.90
2019-06-07T23:28:18.657Z,99.90
2019-06-07T23:33:23.572Z,99.90
2019-06-07T23:38:28.499Z,99.90
2019-06-07T23:43:33.333Z,99.90
2019-06-07T23:48:38.190Z,99.90
2019-06-07T23:53:43.036Z,99.90
2019-06-07T23:58:47.801Z,99.90
